Aviation Digital Data Service (ADDS)

Output produced by METARs form (1736 UTC 03 June 2020)
found at http://www.aviationweather.gov/metar/data/
 
Forecast for: VOBL (BENGALURU , IN)
Text: TAF VOBL 031700Z 0318/0424 23010KT 6000 SCT012 SCT080
Forecast period: 1800 UTC 03 June 2020 to 0000 UTC 05 June 2020
Forecast type: FROM: standard forecast or significant change
Winds: from the SW (230 degrees) at 12 MPH (10 knots; 5.1 m/s)
Visibility: 4 miles (6 km)
Ceiling: at least 12,000 feet AGL
Clouds: scattered clouds at 1200 feet AGL
scattered clouds at 8000 feet AGL
Weather: no significant weather forecast for this period
Text: TEMPO 0400/0403 BKN008 SCT012 BKN080
Forecast period: 0000 to 0300 UTC 04 June 2020
Forecast type: TEMPORARY: The following changes expected for less than half the time period
Visibility: missing
Ceiling: 800 feet AGL
Clouds: broken clouds at 800 feet AGL
scattered clouds at 1200 feet AGL
broken clouds at 8000 feet AGL
Weather: no significant weather forecast for this period
Text: TEMPO 0411/0415 SCT012 SCT018 FEW025CB BKN080
Forecast period: 1100 to 1500 UTC 04 June 2020
Forecast type: TEMPORARY: The following changes expected for less than half the time period
Visibility: missing
Ceiling: at least 12,000 feet AGL
Clouds: scattered clouds at 1200 feet AGL
scattered clouds at 1800 feet AGL
few clouds at 2500 feet AGL
Weather: no significant weather forecast for this period